Time;durP1;ratioP1;P1;durP2;ratioP2;P2;SDS_P1;SDS_P2;PMS_P1;PMS_P2;Temp;Humidity;BMP_temperature;BMP_pressure;BME280_temperature;BME280_humidity;BME280_pressure;Samples;Min_cycle;Max_cycle;Signal;HPM_P1;HPM_P2
2023/08/28 00:01:15;;;;;;;2.55;1.30;;;;;;;;;;5055164;28;20068;-77
2023/08/28 00:03:42;;;;;;;2.25;1.50;;;;;;;;;;5055099;28;20472;-76
2023/08/28 00:06:08;;;;;;;2.55;1.40;;;;;;;;;;5055062;28;20053;-77
2023/08/28 00:08:35;;;;;;;3.40;1.60;;;;;;;;;;5054554;28;20031;-77
2023/08/28 00:11:02;;;;;;;5.45;1.70;;;;;;;;;;5054879;28;20094;-77
2023/08/28 00:13:28;;;;;;;2.92;1.58;;;;;;;;;;5055080;28;20086;-76
2023/08/28 00:15:54;;;;;;;3.45;1.80;;;;;;;;;;5054872;28;20033;-77
2023/08/28 00:18:20;;;;;;;1.50;1.40;;;;;;;;;;5054870;28;20083;-77
2023/08/28 00:20:46;;;;;;;3.58;1.60;;;;;;;;;;5054811;28;20025;-77
2023/08/28 00:23:12;;;;;;;6.88;1.70;;;;;;;;;;5054763;28;20029;-77
2023/08/28 00:25:38;;;;;;;7.50;1.90;;;;;;;;;;5054610;28;20411;-77
2023/08/28 00:28:04;;;;;;;2.35;1.50;;;;;;;;;;5054542;28;20026;-77
2023/08/28 00:30:30;;;;;;;4.50;1.70;;;;;;;;;;5055023;28;20029;-76
2023/08/28 00:32:56;;;;;;;3.97;1.75;;;;;;;;;;5054369;28;20032;-76
2023/08/28 00:35:22;;;;;;;6.22;1.75;;;;;;;;;;5054575;28;20475;-77
2023/08/28 00:37:48;;;;;;;4.57;1.80;;;;;;;;;;5054479;28;20029;-76
2023/08/28 00:40:16;;;;;;;2.35;1.58;;;;;;;;;;5054664;28;20452;-77
2023/08/28 00:42:42;;;;;;;2.78;1.40;;;;;;;;;;5054647;28;20112;-77
2023/08/28 00:45:08;;;;;;;4.35;1.88;;;;;;;;;;5054540;28;20495;-76
2023/08/28 00:47:35;;;;;;;4.72;1.88;;;;;;;;;;5054283;28;20032;-77
2023/08/28 00:50:01;;;;;;;3.85;1.77;;;;;;;;;;5054170;28;20068;-77
2023/08/28 00:52:27;;;;;;;2.97;2.30;;;;;;;;;;5054088;28;20033;-77
2023/08/28 00:54:53;;;;;;;2.97;2.10;;;;;;;;;;5053280;28;20040;-77
2023/08/28 00:57:19;;;;;;;3.17;2.10;;;;;;;;;;5054282;28;20033;-76
2023/08/28 00:59:45;;;;;;;3.22;2.17;;;;;;;;;;5054363;28;20158;-77
2023/08/28 01:02:12;;;;;;;4.63;1.90;;;;;;;;;;5053966;28;20028;-77
2023/08/28 01:04:38;;;;;;;4.07;2.42;;;;;;;;;;5054198;28;20491;-77
2023/08/28 01:07:15;;;;;;;3.97;1.90;;;;;;;;;;5053852;28;20095;-76
2023/08/28 01:09:53;;;;;;;4.05;2.05;;;;;;;;;;5053537;28;20064;-77
2023/08/28 01:12:31;;;;;;;4.07;1.67;;;;;;;;;;5053770;28;20143;-76
2023/08/28 01:15:06;;;;;;;3.33;2.38;;;;;;;;;;5053418;28;20032;-76
2023/08/28 01:17:32;;;;;;;4.03;2.00;;;;;;;;;;5053802;28;20083;-76
2023/08/28 01:19:59;;;;;;;2.92;1.73;;;;;;;;;;5053606;28;20020;-77
2023/08/28 01:22:31;;;;;;;2.28;1.30;;;;;;;;;;5053547;28;20033;-76
2023/08/28 01:25:09;;;;;;;3.92;1.42;;;;;;;;;;5053917;28;20108;-77
2023/08/28 01:27:36;;;;;;;1.42;1.20;;;;;;;;;;5053870;28;20019;-76
2023/08/28 01:30:10;;;;;;;2.60;1.20;;;;;;;;;;5053379;28;20044;-77
2023/08/28 01:32:36;;;;;;;2.42;1.30;;;;;;;;;;5053641;28;20021;-76
2023/08/28 01:35:04;;;;;;;2.20;1.30;;;;;;;;;;5053251;28;20029;-76
2023/08/28 01:37:35;;;;;;;1.80;1.40;;;;;;;;;;5053290;28;20016;-76
2023/08/28 01:40:05;;;;;;;2.75;1.45;;;;;;;;;;5053177;28;20053;-76
2023/08/28 01:42:31;;;;;;;;;;;;;;;;;;5053708;28;20083;-77
2023/08/28 01:44:57;;;;;;;1.60;0.90;;;;;;;;;;5053185;28;20321;-76
2023/08/28 01:47:24;;;;;;;1.73;1.02;;;;;;;;;;5053424;28;20021;-77
2023/08/28 01:49:53;;;;;;;3.10;1.05;;;;;;;;;;5053058;28;20412;-76
2023/08/28 01:52:19;;;;;;;1.85;1.20;;;;;;;;;;5053331;28;20025;-76
2023/08/28 01:54:45;;;;;;;1.08;0.98;;;;;;;;;;5052882;28;20029;-76
2023/08/28 01:57:11;;;;;;;2.55;1.17;;;;;;;;;;5052747;28;20380;-76
2023/08/28 01:59:37;;;;;;;2.35;1.40;;;;;;;;;;5052957;28;20045;-76
2023/08/28 02:02:03;;;;;;;3.08;1.13;;;;;;;;;;5052821;28;20025;-76
2023/08/28 02:04:29;;;;;;;3.58;1.23;;;;;;;;;;5052807;28;20036;-76
2023/08/28 02:06:55;;;;;;;2.55;1.52;;;;;;;;;;5051783;28;20025;-76
2023/08/28 02:09:21;;;;;;;1.98;1.20;;;;;;;;;;5052546;28;20392;-76
2023/08/28 02:11:49;;;;;;;1.60;1.00;;;;;;;;;;5034869;28;20468;-76
2023/08/28 02:14:15;;;;;;;2.08;1.05;;;;;;;;;;5052892;28;20029;-77
2023/08/28 02:16:41;;;;;;;1.13;1.00;;;;;;;;;;5052831;28;20021;-76
2023/08/28 02:19:07;;;;;;;1.30;1.20;;;;;;;;;;5052874;28;20033;-76
2023/08/28 02:21:34;;;;;;;1.58;1.30;;;;;;;;;;5052853;28;20035;-77
2023/08/28 02:24:00;;;;;;;1.55;1.20;;;;;;;;;;5052490;28;20534;-76
2023/08/28 02:26:26;;;;;;;3.38;1.48;;;;;;;;;;5052434;28;20112;-77
2023/08/28 02:28:52;;;;;;;2.03;1.30;;;;;;;;;;5052664;28;20032;-76
2023/08/28 02:31:18;;;;;;;1.80;1.25;;;;;;;;;;5052688;28;20047;-76
2023/08/28 02:33:44;;;;;;;1.45;1.33;;;;;;;;;;5052255;28;20648;-76
2023/08/28 02:36:10;;;;;;;4.15;1.35;;;;;;;;;;5052324;28;20017;-76
2023/08/28 02:38:36;;;;;;;3.42;1.20;;;;;;;;;;5052216;28;20096;-76
2023/08/28 02:41:04;;;;;;;2.83;1.40;;;;;;;;;;5052235;28;20113;-76
2023/08/28 02:43:30;;;;;;;3.63;1.30;;;;;;;;;;5052554;28;20476;-76
2023/08/28 02:45:56;;;;;;;2.35;1.30;;;;;;;;;;5052325;28;20032;-77
2023/08/28 02:48:22;;;;;;;3.58;1.20;;;;;;;;;;5052644;28;20025;-76
2023/08/28 02:50:49;;;;;;;2.45;1.30;;;;;;;;;;5052095;28;20044;-76
2023/08/28 02:53:15;;;;;;;1.33;1.00;;;;;;;;;;5052129;28;20017;-76
2023/08/28 02:55:42;;;;;;;1.40;1.30;;;;;;;;;;5052190;28;20043;-76
2023/08/28 02:58:08;;;;;;;10.48;1.65;;;;;;;;;;5052211;28;20028;-76
2023/08/28 03:00:35;;;;;;;3.22;1.55;;;;;;;;;;5052162;28;20033;-76
2023/08/28 03:03:01;;;;;;;4.50;1.42;;;;;;;;;;5052070;28;20025;-76
2023/08/28 03:05:27;;;;;;;3.40;1.70;;;;;;;;;;5052071;28;20032;-76
2023/08/28 03:07:53;;;;;;;4.55;1.90;;;;;;;;;;5052018;28;20017;-76
2023/08/28 03:10:19;;;;;;;2.90;2.10;;;;;;;;;;5051957;28;20049;-77
2023/08/28 03:12:45;;;;;;;3.53;1.88;;;;;;;;;;5052050;28;20518;-76
2023/08/28 03:15:11;;;;;;;2.92;2.20;;;;;;;;;;5051868;28;20033;-76
2023/08/28 03:17:37;;;;;;;3.20;2.10;;;;;;;;;;5051966;28;20090;-76
2023/08/28 03:20:03;;;;;;;4.20;2.38;;;;;;;;;;5055712;28;20021;-76
2023/08/28 03:22:30;;;;;;;3.55;2.42;;;;;;;;;;5055886;28;20083;-77
2023/08/28 03:24:56;;;;;;;2.50;2.30;;;;;;;;;;5055756;28;20035;-76
2023/08/28 03:27:22;;;;;;;3.72;2.22;;;;;;;;;;5055744;28;20100;-76
2023/08/28 03:29:48;;;;;;;2.95;2.60;;;;;;;;;;5055703;28;20541;-77
2023/08/28 03:32:14;;;;;;;2.63;2.22;;;;;;;;;;5055823;28;20059;-76
2023/08/28 03:34:40;;;;;;;3.00;2.70;;;;;;;;;;5055508;28;20068;-76
2023/08/28 03:37:06;;;;;;;3.67;2.70;;;;;;;;;;5055544;28;20082;-76
2023/08/28 03:39:32;;;;;;;4.20;2.22;;;;;;;;;;5055511;28;20029;-76
2023/08/28 03:41:58;;;;;;;4.43;2.67;;;;;;;;;;5055525;28;20025;-76
2023/08/28 03:44:24;;;;;;;2.70;2.50;;;;;;;;;;5055417;28;20115;-77
2023/08/28 03:46:50;;;;;;;3.97;2.80;;;;;;;;;;5055618;28;20356;-76
2023/08/28 03:49:16;;;;;;;4.50;2.80;;;;;;;;;;5055348;28;20479;-76
2023/08/28 03:51:42;;;;;;;4.18;3.15;;;;;;;;;;5055235;28;20029;-76
2023/08/28 03:54:12;;;;;;;6.97;3.20;;;;;;;;;;5055150;28;20044;-76
2023/08/28 03:56:39;;;;;;;4.72;3.20;;;;;;;;;;5055209;28;20100;-76
2023/08/28 03:59:06;;;;;;;4.75;3.35;;;;;;;;;;5055491;28;20075;-76
2023/08/28 04:01:32;;;;;;;4.43;3.42;;;;;;;;;;5055100;28;20059;-76
2023/08/28 04:03:58;;;;;;;4.28;3.53;;;;;;;;;;5055086;28;20060;-76
2023/08/28 04:06:24;;;;;;;4.18;3.55;;;;;;;;;;5054973;28;20429;-76
2023/08/28 04:08:50;;;;;;;3.90;3.55;;;;;;;;;;5055083;28;20372;-76
2023/08/28 04:11:16;;;;;;;4.93;3.80;;;;;;;;;;5055200;28;20484;-76
2023/08/28 04:13:42;;;;;;;5.15;3.50;;;;;;;;;;5054898;28;20037;-76
2023/08/28 04:16:08;;;;;;;4.95;3.80;;;;;;;;;;5054980;28;20032;-77
2023/08/28 04:18:34;;;;;;;4.10;3.60;;;;;;;;;;5056524;28;20028;-76
2023/08/28 04:21:03;;;;;;;5.82;3.97;;;;;;;;;;5056155;28;20033;-76
2023/08/28 04:23:29;;;;;;;5.60;4.03;;;;;;;;;;5055867;28;20112;-76
2023/08/28 04:25:55;;;;;;;5.80;4.40;;;;;;;;;;5054852;28;20104;-76
2023/08/28 04:28:21;;;;;;;4.85;4.07;;;;;;;;;;5054545;28;20025;-76
2023/08/28 04:30:47;;;;;;;5.35;4.40;;;;;;;;;;5053357;28;20104;-76
2023/08/28 04:33:13;;;;;;;4.15;3.50;;;;;;;;;;5054316;28;20024;-76
2023/08/28 04:35:39;;;;;;;6.53;4.22;;;;;;;;;;5054281;28;20032;-76
2023/08/28 04:38:05;;;;;;;5.18;3.88;;;;;;;;;;5054266;28;20079;-76
2023/08/28 04:40:31;;;;;;;5.28;4.32;;;;;;;;;;5054300;28;20075;-76
2023/08/28 04:42:57;;;;;;;5.07;3.85;;;;;;;;;;5054282;28;20027;-76
2023/08/28 04:45:23;;;;;;;4.38;3.72;;;;;;;;;;5054370;28;20143;-76
2023/08/28 04:47:49;;;;;;;9.40;3.40;;;;;;;;;;5054383;28;20113;-76
2023/08/28 04:50:15;;;;;;;5.00;3.92;;;;;;;;;;5054256;28;20096;-76
2023/08/28 04:52:41;;;;;;;7.15;3.75;;;;;;;;;;5054136;28;20025;-76
2023/08/28 04:55:07;;;;;;;6.07;3.60;;;;;;;;;;5054054;28;20045;-76
2023/08/28 04:57:33;;;;;;;3.47;2.95;;;;;;;;;;5054822;28;20025;-76
2023/08/28 04:59:59;;;;;;;4.95;3.25;;;;;;;;;;5054593;28;20507;-76
2023/08/28 05:02:25;;;;;;;4.88;2.95;;;;;;;;;;5053867;28;20025;-76
2023/08/28 05:04:51;;;;;;;3.67;2.80;;;;;;;;;;5054000;28;20029;-76
2023/08/28 05:07:17;;;;;;;4.63;3.38;;;;;;;;;;5053965;28;20025;-76
2023/08/28 05:09:43;;;;;;;3.50;3.20;;;;;;;;;;5053610;28;20049;-76
2023/08/28 05:12:09;;;;;;;6.30;2.97;;;;;;;;;;5053782;28;20106;-76
2023/08/28 05:14:35;;;;;;;3.53;2.80;;;;;;;;;;5053714;28;20174;-76
2023/08/28 05:17:01;;;;;;;2.90;2.60;;;;;;;;;;5053734;28;20103;-76
2023/08/28 05:19:27;;;;;;;3.63;2.83;;;;;;;;;;5053644;28;20028;-76
2023/08/28 05:21:53;;;;;;;5.18;2.85;;;;;;;;;;5053539;28;20018;-76
2023/08/28 05:24:19;;;;;;;3.28;2.90;;;;;;;;;;5053802;28;20108;-76
2023/08/28 05:26:45;;;;;;;3.45;3.13;;;;;;;;;;5053466;28;20657;-76
2023/08/28 05:29:11;;;;;;;6.75;3.08;;;;;;;;;;5053614;28;20029;-76
2023/08/28 05:31:37;;;;;;;6.68;3.28;;;;;;;;;;5053753;28;20464;-76
2023/08/28 05:34:03;;;;;;;4.47;3.33;;;;;;;;;;5054276;28;20099;-76
2023/08/28 05:36:29;;;;;;;3.25;2.95;;;;;;;;;;5053359;28;20028;-76
2023/08/28 05:38:55;;;;;;;3.67;2.92;;;;;;;;;;5053371;28;20079;-76
2023/08/28 05:41:21;;;;;;;5.43;3.00;;;;;;;;;;5053065;28;20053;-76
2023/08/28 05:43:47;;;;;;;4.00;3.20;;;;;;;;;;5053171;28;20032;-76
2023/08/28 05:46:13;;;;;;;4.80;2.97;;;;;;;;;;5053118;28;20408;-76
2023/08/28 05:48:40;;;;;;;3.20;2.90;;;;;;;;;;5053013;28;20025;-76
2023/08/28 05:51:06;;;;;;;4.28;3.13;;;;;;;;;;5053110;28;20095;-76
2023/08/28 05:53:32;;;;;;;4.55;2.95;;;;;;;;;;5052897;28;20033;-76
2023/08/28 05:55:58;;;;;;;3.75;3.10;;;;;;;;;;5052865;28;20437;-76
2023/08/28 05:58:24;;;;;;;6.93;3.67;;;;;;;;;;5052874;28;20025;-76
2023/08/28 06:00:50;;;;;;;4.82;3.22;;;;;;;;;;5053163;28;20036;-76
2023/08/28 06:03:16;;;;;;;4.38;3.05;;;;;;;;;;5052776;28;20017;-76
2023/08/28 06:05:42;;;;;;;7.55;3.25;;;;;;;;;;5052733;28;20140;-76
2023/08/28 06:08:08;;;;;;;3.00;2.63;;;;;;;;;;5052748;28;20484;-76
2023/08/28 06:10:38;;;;;;;4.55;2.97;;;;;;;;;;5052309;28;20053;-76
2023/08/28 06:13:04;;;;;;;4.60;3.17;;;;;;;;;;5053205;28;20028;-76
2023/08/28 06:15:30;;;;;;;7.47;3.17;;;;;;;;;;5052644;28;20119;-77
2023/08/28 06:17:57;;;;;;;4.85;3.10;;;;;;;;;;5052536;28;20107;-76
2023/08/28 06:20:23;;;;;;;4.68;2.60;;;;;;;;;;5052787;28;20021;-76
2023/08/28 06:22:56;;;;;;;8.38;2.67;;;;;;;;;;5052506;28;20033;-76
2023/08/28 06:25:22;;;;;;;3.83;2.13;;;;;;;;;;5052484;28;20029;-76
2023/08/28 06:27:48;;;;;;;7.40;2.88;;;;;;;;;;5052489;28;20021;-76
2023/08/28 06:30:14;;;;;;;4.00;2.22;;;;;;;;;;5051978;28;20064;-76
2023/08/28 06:32:40;;;;;;;7.20;2.60;;;;;;;;;;5052264;28;20036;-76
2023/08/28 06:35:07;;;;;;;6.15;2.42;;;;;;;;;;5034432;28;20667;-76
2023/08/28 06:37:33;;;;;;;6.43;2.10;;;;;;;;;;5052337;28;20075;-76
2023/08/28 06:39:59;;;;;;;6.38;2.25;;;;;;;;;;5052554;28;20049;-76
2023/08/28 06:42:25;;;;;;;3.25;2.03;;;;;;;;;;5052336;28;20060;-76
2023/08/28 06:44:51;;;;;;;4.53;2.47;;;;;;;;;;5052219;28;20476;-76
2023/08/28 06:47:17;;;;;;;3.30;2.00;;;;;;;;;;5052224;28;20021;-76
2023/08/28 06:49:43;;;;;;;3.63;1.48;;;;;;;;;;5052082;28;20030;-76
2023/08/28 06:52:09;;;;;;;3.72;1.40;;;;;;;;;;5052146;28;20406;-76
2023/08/28 06:54:35;;;;;;;2.90;1.50;;;;;;;;;;5055206;28;20040;-77
2023/08/28 06:57:01;;;;;;;4.93;1.25;;;;;;;;;;5056366;28;20481;-77
2023/08/28 06:59:27;;;;;;;1.77;1.20;;;;;;;;;;5056562;28;20021;-77
2023/08/28 07:01:53;;;;;;;1.65;1.00;;;;;;;;;;5056220;28;20155;-77
2023/08/28 07:04:19;;;;;;;2.85;1.25;;;;;;;;;;5056162;28;20017;-76
2023/08/28 07:06:45;;;;;;;2.45;0.73;;;;;;;;;;5056111;28;20103;-77
2023/08/28 07:09:11;;;;;;;1.13;0.80;;;;;;;;;;5055991;28;20483;-77
2023/08/28 07:11:37;;;;;;;0.98;0.50;;;;;;;;;;5055732;28;20139;-77
2023/08/28 07:14:04;;;;;;;1.15;0.68;;;;;;;;;;5038274;28;20460;-77
2023/08/28 07:16:30;;;;;;;1.48;0.57;;;;;;;;;;5056269;28;20021;-77
2023/08/28 07:18:56;;;;;;;1.17;0.60;;;;;;;;;;5055933;28;20523;-77
2023/08/28 07:21:22;;;;;;;1.65;0.57;;;;;;;;;;5055775;28;20104;-77
2023/08/28 07:23:50;;;;;;;2.13;0.60;;;;;;;;;;5055819;28;20032;-76
2023/08/28 07:26:16;;;;;;;0.98;0.60;;;;;;;;;;5056079;28;20471;-77
2023/08/28 07:28:42;;;;;;;2.50;0.50;;;;;;;;;;5056072;28;20031;-77
2023/08/28 07:31:10;;;;;;;1.13;0.40;;;;;;;;;;5055896;28;20467;-77
2023/08/28 07:33:36;;;;;;;1.40;0.60;;;;;;;;;;5055877;28;20056;-77
2023/08/28 07:36:03;;;;;;;1.92;0.70;;;;;;;;;;5055522;28;20384;-77
2023/08/28 07:38:29;;;;;;;1.27;0.70;;;;;;;;;;5055605;28;20029;-77
2023/08/28 07:40:55;;;;;;;1.15;0.40;;;;;;;;;;5055542;28;20025;-77
2023/08/28 07:43:21;;;;;;;1.95;0.65;;;;;;;;;;5055420;28;20074;-77
2023/08/28 07:45:47;;;;;;;2.33;0.70;;;;;;;;;;5055437;28;20017;-77
2023/08/28 07:48:13;;;;;;;0.50;0.40;;;;;;;;;;5055646;28;20032;-77
2023/08/28 07:50:45;;;;;;;0.50;0.50;;;;;;;;;;5055281;28;20043;-77
2023/08/28 07:53:11;;;;;;;0.90;0.55;;;;;;;;;;5055544;28;20021;-77
2023/08/28 07:55:37;;;;;;;1.20;0.50;;;;;;;;;;5055508;28;20036;-77
2023/08/28 07:58:04;;;;;;;1.08;0.57;;;;;;;;;;5055506;28;20029;-77
2023/08/28 08:00:34;;;;;;;0.47;0.40;;;;;;;;;;5055236;28;20078;-77
2023/08/28 08:03:00;;;;;;;1.25;0.50;;;;;;;;;;5055524;28;20024;-77
2023/08/28 08:05:26;;;;;;;0.77;0.40;;;;;;;;;;5055856;28;20043;-77
2023/08/28 08:07:52;;;;;;;1.45;0.50;;;;;;;;;;5055068;28;20076;-78
2023/08/28 08:10:18;;;;;;;0.60;0.40;;;;;;;;;;5054614;28;20518;-78
2023/08/28 08:12:45;;;;;;;1.83;0.40;;;;;;;;;;5037256;28;20031;-78
2023/08/28 08:15:11;;;;;;;1.50;0.50;;;;;;;;;;5055630;28;20033;-78
2023/08/28 08:17:37;;;;;;;1.13;0.40;;;;;;;;;;5055429;28;20108;-78
2023/08/28 08:20:05;;;;;;;1.15;0.50;;;;;;;;;;5055316;28;20025;-78
2023/08/28 08:22:31;;;;;;;0.43;0.40;;;;;;;;;;5054905;28;20029;-77
2023/08/28 08:24:57;;;;;;;0.77;0.55;;;;;;;;;;5054929;28;20040;-78
2023/08/28 08:27:25;;;;;;;1.20;0.60;;;;;;;;;;5054776;28;20083;-78
2023/08/28 08:29:51;;;;;;;1.65;0.50;;;;;;;;;;5054934;28;20067;-77
2023/08/28 08:32:17;;;;;;;0.63;0.50;;;;;;;;;;5054609;28;20032;-77
2023/08/28 08:34:44;;;;;;;0.73;0.40;;;;;;;;;;5054436;28;20029;-77
2023/08/28 08:37:10;;;;;;;2.53;0.60;;;;;;;;;;5054389;28;20463;-77
2023/08/28 08:39:37;;;;;;;3.08;0.70;;;;;;;;;;5054810;28;20025;-77
2023/08/28 08:42:03;;;;;;;0.63;0.63;;;;;;;;;;5054677;28;20573;-77
2023/08/28 08:44:30;;;;;;;1.08;0.50;;;;;;;;;;5054576;28;20087;-78
2023/08/28 08:46:56;;;;;;;1.35;0.40;;;;;;;;;;5054691;28;20052;-78
2023/08/28 08:49:25;;;;;;;1.38;0.50;;;;;;;;;;5054645;28;20029;-77
2023/08/28 08:52:00;;;;;;;1.15;0.50;;;;;;;;;;5055050;28;20013;-78
2023/08/28 08:54:30;;;;;;;0.73;0.50;;;;;;;;;;5054400;28;20033;-78
2023/08/28 08:57:00;;;;;;;0.70;0.30;;;;;;;;;;5054704;28;20375;-77
2023/08/28 08:59:29;;;;;;;4.82;0.90;;;;;;;;;;5054898;28;20381;-78
2023/08/28 09:01:55;;;;;;;1.98;0.70;;;;;;;;;;5054803;28;20020;-78
2023/08/28 09:04:22;;;;;;;1.60;0.40;;;;;;;;;;5054590;28;20024;-78
2023/08/28 09:06:49;;;;;;;0.50;0.45;;;;;;;;;;5054498;28;20013;-78
2023/08/28 09:09:15;;;;;;;1.88;0.77;;;;;;;;;;5054383;28;20029;-78
2023/08/28 09:11:45;;;;;;;1.00;0.57;;;;;;;;;;5054480;28;20088;-78
2023/08/28 09:14:11;;;;;;;2.22;0.50;;;;;;;;;;5054882;28;20024;-78
2023/08/28 09:16:37;;;;;;;1.23;0.82;;;;;;;;;;5054149;28;20021;-78
2023/08/28 09:19:03;;;;;;;1.35;0.50;;;;;;;;;;5055042;28;20092;-78
2023/08/28 09:21:38;;;;;;;1.45;0.70;;;;;;;;;;5055133;28;20498;-78
2023/08/28 09:24:09;;;;;;;1.42;0.65;;;;;;;;;;5054305;28;20029;-78
2023/08/28 09:26:36;;;;;;;1.80;0.52;;;;;;;;;;5053928;28;20504;-78
2023/08/28 09:29:03;;;;;;;0.93;0.40;;;;;;;;;;5053840;28;20387;-78
2023/08/28 09:31:34;;;;;;;0.93;0.55;;;;;;;;;;5053304;28;20553;-77
2023/08/28 09:34:00;;;;;;;1.55;0.60;;;;;;;;;;5053560;28;20038;-77
2023/08/28 09:36:28;;;;;;;0.75;0.50;;;;;;;;;;5053610;28;20017;-78
2023/08/28 09:38:59;;;;;;;1.92;0.50;;;;;;;;;;5053666;28;20029;-78
2023/08/28 09:41:35;;;;;;;1.73;0.75;;;;;;;;;;5054439;28;20029;-78
2023/08/28 09:44:01;;;;;;;1.55;0.60;;;;;;;;;;5053446;28;20099;-78
2023/08/28 09:46:27;;;;;;;1.48;0.40;;;;;;;;;;5053537;28;20165;-78
2023/08/28 09:48:54;;;;;;;0.68;0.40;;;;;;;;;;5054085;28;20452;-78
2023/08/28 09:51:20;;;;;;;2.03;0.68;;;;;;;;;;5035637;28;20371;-78
2023/08/28 09:53:58;;;;;;;2.97;0.65;;;;;;;;;;5053052;28;20041;-78
2023/08/28 09:56:30;;;;;;;0.82;0.55;;;;;;;;;;5053273;28;20384;-78
2023/08/28 09:58:57;;;;;;;1.38;0.60;;;;;;;;;;5053389;28;20052;-78
2023/08/28 10:01:25;;;;;;;0.63;0.50;;;;;;;;;;5053140;28;20035;-78
2023/08/28 10:03:51;;;;;;;1.98;0.60;;;;;;;;;;5052941;28;20652;-78
2023/08/28 10:06:17;;;;;;;2.55;0.60;;;;;;;;;;5054528;28;20066;-78
2023/08/28 10:08:44;;;;;;;2.40;0.50;;;;;;;;;;5053501;28;20025;-78
2023/08/28 10:11:10;;;;;;;1.20;0.60;;;;;;;;;;5052825;28;20150;-78
2023/08/28 10:13:36;;;;;;;0.80;0.40;;;;;;;;;;5053469;28;20036;-78
2023/08/28 10:16:07;;;;;;;1.58;0.75;;;;;;;;;;5054428;28;20341;-78
2023/08/28 10:18:36;;;;;;;1.77;0.70;;;;;;;;;;5053912;28;20443;-78
2023/08/28 10:21:02;;;;;;;1.52;0.65;;;;;;;;;;5054249;28;20118;-78
2023/08/28 10:23:29;;;;;;;1.33;0.40;;;;;;;;;;5054838;28;20067;-78
2023/08/28 10:25:56;;;;;;;1.45;0.70;;;;;;;;;;5053612;28;20018;-78
2023/08/28 10:28:23;;;;;;;0.47;0.47;;;;;;;;;;5052614;28;20025;-78
2023/08/28 10:30:51;;;;;;;0.68;0.50;;;;;;;;;;5053377;28;20017;-78
2023/08/28 10:33:19;;;;;;;2.80;0.50;;;;;;;;;;5053369;28;20104;-78
2023/08/28 10:35:47;;;;;;;2.25;0.68;;;;;;;;;;5053901;28;20083;-77
2023/08/28 10:38:14;;;;;;;1.67;0.60;;;;;;;;;;5053376;28;20021;-78
2023/08/28 10:40:40;;;;;;;0.70;0.50;;;;;;;;;;5054054;28;20018;-78
2023/08/28 10:43:06;;;;;;;1.25;0.50;;;;;;;;;;5054351;28;20021;-78
2023/08/28 10:45:36;;;;;;;1.80;0.70;;;;;;;;;;5054362;28;20031;-78
2023/08/28 10:48:03;;;;;;;;;;;;;;;;;;5053809;28;20044;-78
2023/08/28 10:50:36;;;;;;;0.40;0.30;;;;;;;;;;5053245;28;19905;-78
2023/08/28 10:53:02;;;;;;;2.45;0.40;;;;;;;;;;5053003;28;20024;-78
2023/08/28 10:55:28;;;;;;;0.80;0.32;;;;;;;;;;5053189;28;20107;-78
2023/08/28 10:57:54;;;;;;;2.03;0.38;;;;;;;;;;5054345;28;20052;-78
2023/08/28 11:00:21;;;;;;;1.02;0.30;;;;;;;;;;5053524;28;20081;-78
2023/08/28 11:03:17;;;;;;;1.05;0.50;;;;;;;;;;5055525;28;20032;-78
2023/08/28 11:05:44;;;;;;;1.92;0.50;;;;;;;;;;5051829;28;20029;-78
2023/08/28 11:08:11;;;;;;;1.10;0.57;;;;;;;;;;5055086;28;20515;-78
2023/08/28 11:10:38;;;;;;;2.17;0.40;;;;;;;;;;5052937;28;20060;-79
2023/08/28 11:13:11;;;;;;;2.47;0.60;;;;;;;;;;5053382;28;20546;-78
2023/08/28 11:15:40;;;;;;;0.40;0.30;;;;;;;;;;5054824;28;20610;-78
2023/08/28 11:18:13;;;;;;;1.17;0.47;;;;;;;;;;5053422;28;20025;-78
2023/08/28 11:20:39;;;;;;;1.55;0.50;;;;;;;;;;5054202;28;20110;-78
2023/08/28 11:23:06;;;;;;;1.35;0.50;;;;;;;;;;5053705;28;20035;-78
2023/08/28 11:25:36;;;;;;;0.95;0.55;;;;;;;;;;5052743;28;20025;-78
2023/08/28 11:28:02;;;;;;;1.25;0.40;;;;;;;;;;5035162;28;20025;-78
2023/08/28 11:30:29;;;;;;;1.85;0.50;;;;;;;;;;5053789;28;20456;-78
2023/08/28 11:32:55;;;;;;;2.15;0.40;;;;;;;;;;5055234;28;20095;-78
2023/08/28 11:35:23;;;;;;;2.08;0.63;;;;;;;;;;5053650;28;20423;-78
2023/08/28 11:37:52;;;;;;;0.80;0.30;;;;;;;;;;5053521;28;20070;-78
2023/08/28 11:40:19;;;;;;;0.60;0.38;;;;;;;;;;5039684;28;20040;-79
2023/08/28 11:42:49;;;;;;;0.88;0.50;;;;;;;;;;5056807;28;20021;-78
2023/08/28 11:45:22;;;;;;;3.65;0.40;;;;;;;;;;5056256;28;20456;-78
2023/08/28 11:47:48;;;;;;;1.30;0.32;;;;;;;;;;5056534;28;20029;-78
2023/08/28 11:50:14;;;;;;;1.58;0.30;;;;;;;;;;5057595;28;20033;-78
2023/08/28 11:52:40;;;;;;;1.17;0.40;;;;;;;;;;5055967;28;20028;-78
2023/08/28 11:55:06;;;;;;;3.40;0.50;;;;;;;;;;5055628;28;20037;-79
2023/08/28 11:57:34;;;;;;;1.02;0.38;;;;;;;;;;5055615;28;20021;-79
2023/08/28 12:00:02;;;;;;;0.80;0.22;;;;;;;;;;5058237;28;20013;-79
2023/08/28 12:02:29;;;;;;;1.80;0.30;;;;;;;;;;5056121;28;20032;-78
2023/08/28 12:04:55;;;;;;;1.95;0.40;;;;;;;;;;5056413;28;20025;-79
2023/08/28 12:07:23;;;;;;;2.75;0.50;;;;;;;;;;5058869;28;20510;-78
2023/08/28 12:09:49;;;;;;;1.95;0.32;;;;;;;;;;5057290;28;20416;-78
2023/08/28 12:12:16;;;;;;;1.88;0.30;;;;;;;;;;5055131;28;20135;-78
2023/08/28 12:14:45;;;;;;;0.70;0.30;;;;;;;;;;5055406;28;20108;-79
2023/08/28 12:17:15;;;;;;;1.33;0.40;;;;;;;;;;5057904;28;20096;-78
2023/08/28 12:19:41;;;;;;;1.63;0.50;;;;;;;;;;5055356;28;20456;-79
2023/08/28 12:22:08;;;;;;;1.15;0.40;;;;;;;;;;5057823;28;20486;-79
2023/08/28 12:24:39;;;;;;;1.42;0.32;;;;;;;;;;5055965;28;20040;-77
2023/08/28 12:27:05;;;;;;;1.65;0.40;;;;;;;;;;5037077;28;20032;-77
2023/08/28 12:29:33;;;;;;;1.10;0.30;;;;;;;;;;5055568;28;20032;-78
2023/08/28 12:31:59;;;;;;;1.15;0.40;;;;;;;;;;5055219;28;20106;-78
2023/08/28 12:34:30;;;;;;;0.77;0.35;;;;;;;;;;5054530;28;20073;-78
2023/08/28 12:37:03;;;;;;;1.77;0.38;;;;;;;;;;5055856;28;20017;-77
2023/08/28 12:39:29;;;;;;;0.82;0.35;;;;;;;;;;5055443;28;20028;-77
2023/08/28 12:41:55;;;;;;;1.80;0.40;;;;;;;;;;5055030;28;20033;-77
2023/08/28 12:44:22;;;;;;;2.22;0.35;;;;;;;;;;5055671;28;20530;-78
2023/08/28 12:46:49;;;;;;;0.30;0.30;;;;;;;;;;5054990;28;20025;-78
2023/08/28 12:49:19;;;;;;;3.05;0.50;;;;;;;;;;5055931;28;20028;-77
2023/08/28 12:51:45;;;;;;;0.95;0.40;;;;;;;;;;5055132;28;20022;-78
2023/08/28 12:54:19;;;;;;;2.08;0.55;;;;;;;;;;5056154;28;20095;-77
2023/08/28 12:56:45;;;;;;;0.85;0.38;;;;;;;;;;5055031;28;20013;-78
2023/08/28 12:59:11;;;;;;;1.48;0.43;;;;;;;;;;5054488;28;20040;-78
2023/08/28 13:01:37;;;;;;;1.80;0.20;;;;;;;;;;5056043;28;20029;-78
2023/08/28 13:04:04;;;;;;;0.60;0.40;;;;;;;;;;5055363;28;20508;-77
2023/08/28 13:06:30;;;;;;;0.65;0.30;;;;;;;;;;5054854;28;20028;-78
2023/08/28 13:08:56;;;;;;;1.05;0.40;;;;;;;;;;5055127;28;20104;-78
2023/08/28 13:11:22;;;;;;;1.05;0.43;;;;;;;;;;5054595;28;20395;-78
2023/08/28 13:13:48;;;;;;;2.05;0.38;;;;;;;;;;5055373;28;20032;-78
2023/08/28 13:16:15;;;;;;;0.32;0.30;;;;;;;;;;5055752;28;20021;-77
2023/08/28 13:18:41;;;;;;;2.85;0.73;;;;;;;;;;5054677;28;20456;-77
2023/08/28 13:21:09;;;;;;;0.70;0.35;;;;;;;;;;5053851;28;20021;-77
2023/08/28 13:23:35;;;;;;;2.35;0.57;;;;;;;;;;5054309;28;20025;-78
2023/08/28 13:26:01;;;;;;;1.40;0.40;;;;;;;;;;5053971;28;20032;-78
2023/08/28 13:28:28;;;;;;;0.68;0.32;;;;;;;;;;5053902;28;20052;-77
2023/08/28 13:30:54;;;;;;;1.23;0.35;;;;;;;;;;5053618;28;20048;-77
2023/08/28 13:33:21;;;;;;;1.27;0.60;;;;;;;;;;5053640;28;20480;-77
2023/08/28 13:35:48;;;;;;;0.82;0.65;;;;;;;;;;5053842;28;20029;-77
2023/08/28 13:38:15;;;;;;;1.73;0.40;;;;;;;;;;5054044;28;20024;-77
2023/08/28 13:40:41;;;;;;;1.95;0.50;;;;;;;;;;5055819;28;20677;-79
2023/08/28 13:43:07;;;;;;;2.03;0.70;;;;;;;;;;5054346;28;20484;-79
2023/08/28 13:45:33;;;;;;;1.08;0.50;;;;;;;;;;5054418;28;20411;-79
2023/08/28 13:47:59;;;;;;;1.92;0.52;;;;;;;;;;5056018;28;20021;-78
2023/08/28 13:50:26;;;;;;;1.05;0.30;;;;;;;;;;5054082;28;20499;-79
2023/08/28 13:52:52;;;;;;;1.13;0.40;;;;;;;;;;5054084;28;20013;-82
2023/08/28 13:55:19;;;;;;;1.10;0.52;;;;;;;;;;5055249;28;20029;-81
2023/08/28 13:57:45;;;;;;;1.20;0.80;;;;;;;;;;5055276;28;20027;-81
2023/08/28 14:00:14;;;;;;;1.88;0.50;;;;;;;;;;5054944;28;20084;-81
2023/08/28 14:02:43;;;;;;;0.52;0.40;;;;;;;;;;5054418;28;20103;-81
2023/08/28 14:05:13;;;;;;;1.02;0.50;;;;;;;;;;5054861;28;20033;-82
2023/08/28 14:07:43;;;;;;;2.15;0.45;;;;;;;;;;5054832;28;20396;-81
2023/08/28 14:10:32;;;;;;;1.05;0.60;;;;;;;;;;5054217;28;20059;-82
2023/08/28 14:12:58;;;;;;;1.35;0.50;;;;;;;;;;5054460;28;20033;-82
2023/08/28 14:15:24;;;;;;;1.02;0.57;;;;;;;;;;5054560;28;20052;-82
2023/08/28 14:17:50;;;;;;;0.70;0.47;;;;;;;;;;5054526;28;20029;-82
2023/08/28 14:20:16;;;;;;;1.65;0.30;;;;;;;;;;5054148;28;20041;-82
2023/08/28 14:22:42;;;;;;;1.50;0.45;;;;;;;;;;5054099;28;20487;-81
2023/08/28 14:25:08;;;;;;;1.23;0.50;;;;;;;;;;5054151;28;20487;-82
2023/08/28 14:27:35;;;;;;;0.57;0.40;;;;;;;;;;5054114;28;20100;-82
2023/08/28 14:30:01;;;;;;;0.68;0.55;;;;;;;;;;5054298;28;20459;-82
2023/08/28 14:32:28;;;;;;;0.93;0.50;;;;;;;;;;5054188;28;20020;-82
2023/08/28 14:34:54;;;;;;;2.58;0.80;;;;;;;;;;5035871;28;20040;-81
2023/08/28 14:37:20;;;;;;;0.95;0.57;;;;;;;;;;5036297;28;20043;-82
2023/08/28 14:39:46;;;;;;;0.60;0.60;;;;;;;;;;5054072;28;20458;-81
2023/08/28 14:42:12;;;;;;;2.15;0.50;;;;;;;;;;5053617;28;20025;-82